Time;durP1;ratioP1;P1;durP2;ratioP2;P2;SDS_P1;SDS_P2;PMS_P1;PMS_P2;Temp;Humidity;BMP_temperature;BMP_pressure;BME280_temperature;BME280_humidity;BME280_pressure;Samples;Min_cycle;Max_cycle;Signal;HPM_P1;HPM_P2
2023/06/21 00:00:15;;;;;;;3.50;3.20;;;;;;;16.42;87.43;98961.11;105654;1253;73822;-19
2023/06/21 00:02:45;;;;;;;3.50;3.20;;;;;;;16.80;85.36;98958.62;105548;1254;74106;-20
2023/06/21 00:05:12;;;;;;;4.20;3.90;;;;;;;16.75;84.66;98957.75;105281;1253;73146;-20
2023/06/21 00:07:40;;;;;;;4.90;4.40;;;;;;;16.52;85.04;98956.80;105594;1253;61131;-20
2023/06/21 00:10:08;;;;;;;6.00;3.90;;;;;;;16.20;85.80;98951.89;105673;1258;61183;-20
2023/06/21 00:12:36;;;;;;;4.10;3.40;;;;;;;15.89;86.33;98949.22;105718;1253;73710;-20
2023/06/21 00:15:04;;;;;;;4.50;3.70;;;;;;;16.15;86.69;98944.79;105735;1253;74238;-20
2023/06/21 00:17:31;;;;;;;5.60;5.00;;;;;;;16.51;85.77;98945.49;105609;1260;71426;-20
2023/06/21 00:19:58;;;;;;;6.10;5.50;;;;;;;16.50;85.98;98950.98;105723;1253;61043;-20
2023/06/21 00:22:25;;;;;;;7.90;5.50;;;;;;;16.30;86.53;98953.89;105643;1259;61059;-20
2023/06/21 00:24:52;;;;;;;5.50;5.00;;;;;;;15.96;87.19;98953.41;105677;1253;73635;-20
2023/06/21 00:27:20;;;;;;;3.30;3.00;;;;;;;15.63;89.22;98962.21;105636;1258;74126;-20
2023/06/21 00:29:47;;;;;;;6.50;3.90;;;;;;;15.94;89.26;98965.50;105557;1253;73242;-20
2023/06/21 00:32:14;;;;;;;5.00;4.50;;;;;;;16.26;86.59;98965.33;105698;1253;61139;-20
2023/06/21 00:34:42;;;;;;;5.40;4.90;;;;;;;16.16;86.20;98967.81;105678;1257;61103;-20
2023/06/21 00:37:11;;;;;;;5.20;4.70;;;;;;;15.91;87.13;98977.18;105539;1253;73844;-20
2023/06/21 00:39:38;;;;;;;6.60;5.90;;;;;;;15.60;88.51;98977.39;105639;1253;75009;-20
2023/06/21 00:42:06;;;;;;;3.90;3.50;;;;;;;15.31;90.31;98981.94;105606;1256;72453;-21
2023/06/21 00:44:35;;;;;;;5.60;5.00;;;;;;;15.59;90.79;98980.45;105424;1253;61046;-20
2023/06/21 00:47:02;;;;;;;6.10;5.40;;;;;;;15.98;88.91;98976.00;105459;1260;61183;-19
2023/06/21 00:49:29;;;;;;;6.80;6.10;;;;;;;15.91;88.23;98976.67;105822;1253;74346;-20
2023/06/21 00:51:57;;;;;;;7.20;6.40;;;;;;;15.74;88.87;98978.88;105820;1257;75598;-20
2023/06/21 00:54:35;;;;;;;7.50;6.70;;;;;;;15.57;89.21;98981.05;105758;1253;72492;-20
2023/06/21 00:57:02;;;;;;;4.20;3.70;;;;;;;15.41;89.96;98987.56;105679;1257;61071;-20
2023/06/21 00:59:29;;;;;;;6.40;4.70;;;;;;;15.89;90.07;98984.16;105653;1258;61192;-20
2023/06/21 01:01:57;;;;;;;6.60;5.80;;;;;;;16.35;87.67;98989.52;105389;1261;74415;-21
2023/06/21 01:04:25;;;;;;;8.40;7.50;;;;;;;16.35;87.15;98987.33;105307;1260;74456;-20
2023/06/21 01:07:13;;;;;;;11.00;8.10;;;;;;;16.17;87.56;98985.66;105394;1253;72708;-20
2023/06/21 01:10:14;;;;;;;11.70;8.40;;;;;;;15.87;89.00;98988.61;105682;1253;61748;-21
2023/06/21 01:12:45;;;;;;;7.10;6.20;;;;;;;15.65;90.64;98988.60;105364;1254;61100;-20
2023/06/21 01:15:17;;;;;;;10.30;6.70;;;;;;;16.15;89.99;98989.57;105598;1253;73889;-20
2023/06/21 01:17:45;;;;;;;9.20;7.70;;;;;;;16.46;88.41;98995.64;105149;1262;74365;-21
2023/06/21 01:20:18;;;;;;;11.90;10.10;;;;;;;16.34;88.31;98995.10;105330;1260;71552;-20
2023/06/21 01:22:53;;;;;;;15.00;9.90;;;;;;;16.12;89.65;99002.88;105486;1258;61128;-20
2023/06/21 01:25:53;;;;;;;8.10;6.80;;;;;;;15.94;90.72;99001.36;105447;1258;61267;-20
2023/06/21 01:28:44;;;;;;;8.80;7.60;;;;;;;16.49;89.92;99006.34;105257;1265;73977;-21
2023/06/21 01:31:15;;;;;;;10.80;8.30;;;;;;;16.75;88.01;99009.69;105749;1257;74678;-20
2023/06/21 01:33:42;;;;;;;13.80;9.70;;;;;;;16.63;88.30;99012.05;105263;1253;71677;-21
2023/06/21 01:36:09;;;;;;;12.40;9.70;;;;;;;16.40;89.41;99015.80;105703;1253;60989;-21
2023/06/21 01:38:37;;;;;;;9.50;7.20;;;;;;;16.24;90.48;99017.92;105686;1258;61139;-21
2023/06/21 01:41:06;;;;;;;8.80;7.40;;;;;;;16.54;91.55;99016.42;105714;1253;73697;-20
2023/06/21 01:43:33;;;;;;;13.60;9.30;;;;;;;17.00;89.46;99012.82;105474;1259;74158;-21
2023/06/21 01:46:01;;;;;;;11.00;9.20;;;;;;;16.95;88.88;99011.73;105504;1256;72666;-20
2023/06/21 01:48:29;;;;;;;11.00;9.50;;;;;;;16.85;88.80;99016.17;105653;1253;61058;-20
2023/06/21 01:50:56;;;;;;;12.30;10.50;;;;;;;16.63;89.17;99014.06;105671;1259;61230;-21
2023/06/21 01:53:37;;;;;;;9.60;7.10;;;;;;;16.46;90.34;99015.02;105509;1259;73878;-21
2023/06/21 01:56:07;;;;;;;8.80;7.40;;;;;;;16.93;90.00;99019.48;105783;1257;74837;-20
2023/06/21 01:58:34;;;;;;;12.00;8.30;;;;;;;17.34;87.41;99013.25;105654;1260;72660;-21
2023/06/21 02:01:04;;;;;;;12.60;9.60;;;;;;;17.27;86.53;99014.79;105498;1258;61033;-21
2023/06/21 02:03:31;;;;;;;14.60;10.80;;;;;;;16.99;86.70;99019.02;105461;1254;61126;-21
2023/06/21 02:06:00;;;;;;;13.40;10.60;;;;;;;16.71;87.76;99020.49;105371;1254;74252;-21
2023/06/21 02:08:29;;;;;;;9.20;7.00;;;;;;;16.44;88.94;99019.45;105702;1253;73248;-20
2023/06/21 02:10:57;;;;;;;12.10;8.90;;;;;;;16.74;89.16;99026.60;105425;1254;72610;-20
2023/06/21 02:13:26;;;;;;;13.10;9.40;;;;;;;17.08;87.77;99021.95;105433;1253;61127;-20
2023/06/21 02:15:54;;;;;;;14.30;10.50;;;;;;;17.02;87.16;99017.85;105348;1261;61232;-21
2023/06/21 02:18:22;;;;;;;13.40;10.90;;;;;;;16.75;87.78;99017.96;105629;1253;72852;-21
2023/06/21 02:20:50;;;;;;;12.90;10.70;;;;;;;16.44;89.43;99018.75;105462;1253;74244;-20
2023/06/21 02:23:18;;;;;;;8.60;7.20;;;;;;;16.22;90.48;99022.13;105657;1253;71690;-21
2023/06/21 02:25:45;;;;;;;11.20;8.80;;;;;;;16.64;90.35;99023.69;105811;1253;61084;-21
2023/06/21 02:28:12;;;;;;;12.40;9.60;;;;;;;17.08;88.22;99023.51;105759;1265;61132;-20
2023/06/21 02:30:39;;;;;;;13.40;10.50;;;;;;;17.12;87.77;99016.26;105789;1253;72865;-20
2023/06/21 02:33:07;;;;;;;15.30;11.30;;;;;;;16.94;87.82;99021.83;105555;1253;74232;-21
2023/06/21 02:35:34;;;;;;;16.30;12.60;;;;;;;16.66;88.64;99026.02;105487;1253;72632;-21
2023/06/21 02:38:04;;;;;;;10.70;7.10;;;;;;;16.46;89.98;99028.67;105369;1259;61101;-20
2023/06/21 02:40:32;;;;;;;11.00;8.30;;;;;;;16.89;89.64;99037.48;105752;1254;61107;-20
2023/06/21 02:43:00;;;;;;;13.20;9.40;;;;;;;17.31;87.41;99036.98;105688;1253;73832;-21
2023/06/21 02:45:27;;;;;;;15.50;11.50;;;;;;;17.22;86.55;99041.64;105789;1260;74783;-21
2023/06/21 02:47:55;;;;;;;15.00;11.40;;;;;;;16.92;87.87;99042.38;105705;1253;72639;-21
2023/06/21 02:50:22;;;;;;;16.60;12.50;;;;;;;16.64;89.55;99039.40;105690;1259;61199;-21
2023/06/21 02:52:49;;;;;;;10.40;8.60;;;;;;;16.45;91.18;99048.36;105542;1258;61164;-21
2023/06/21 02:55:17;;;;;;;12.00;9.10;;;;;;;16.86;91.47;99050.55;105674;1254;73746;-21
2023/06/21 02:57:44;;;;;;;14.50;10.20;;;;;;;17.33;89.24;99050.27;105776;1262;74391;-21
2023/06/21 03:00:28;;;;;;;18.00;12.70;;;;;;;17.37;88.38;99050.72;105557;1258;72656;-21
2023/06/21 03:03:00;;;;;;;21.30;12.80;;;;;;;17.07;89.13;99053.59;105685;1258;61106;-21
2023/06/21 03:05:33;;;;;;;17.20;13.00;;;;;;;16.96;90.01;99053.95;105638;1259;61105;-21
2023/06/21 03:08:04;;;;;;;10.40;8.50;;;;;;;16.79;91.33;99054.77;105687;1260;73841;-21
2023/06/21 03:10:34;;;;;;;14.40;10.50;;;;;;;16.91;91.51;99055.89;105676;1261;73597;-21
2023/06/21 03:13:04;;;;;;;17.90;13.90;;;;;;;17.37;89.78;99055.45;105734;1258;72683;-20
2023/06/21 03:15:31;;;;;;;15.30;12.90;;;;;;;17.63;88.66;99054.52;105679;1253;61173;-21
2023/06/21 03:17:58;;;;;;;20.70;14.50;;;;;;;17.44;88.44;99057.44;103883;1257;2542863;-21
2023/06/21 03:20:27;;;;;;;21.20;17.10;;;;;;;17.01;89.79;99060.61;105672;1258;72299;-21
2023/06/21 03:22:54;;;;;;;17.70;11.30;;;;;;;16.65;92.09;99068.55;105555;1258;74042;-21
2023/06/21 03:25:22;;;;;;;13.70;10.50;;;;;;;17.09;91.87;99072.02;105626;1259;72855;-21
2023/06/21 03:27:51;;;;;;;16.20;12.20;;;;;;;17.53;88.87;99074.27;105626;1259;61063;-23
2023/06/21 03:30:18;;;;;;;19.30;15.10;;;;;;;17.20;88.46;99072.50;105556;1254;61175;-21
2023/06/21 03:32:47;;;;;;;17.80;14.60;;;;;;;16.91;90.63;99073.70;105717;1259;73755;-21
2023/06/21 03:35:17;;;;;;;16.30;10.50;;;;;;;16.67;92.39;99072.98;105765;1258;74291;-21
2023/06/21 03:37:46;;;;;;;14.90;10.50;;;;;;;17.09;91.31;99072.63;105539;1261;72664;-21
2023/06/21 03:40:14;;;;;;;18.00;11.80;;;;;;;17.63;88.56;99064.19;105749;1253;61058;-21
2023/06/21 03:42:42;;;;;;;20.80;15.50;;;;;;;17.63;87.22;99065.11;105748;1253;61119;-21
2023/06/21 03:45:09;;;;;;;19.20;13.80;;;;;;;16.87;89.30;99065.91;105692;1258;73060;-21
2023/06/21 03:47:39;;;;;;;12.30;9.50;;;;;;;16.54;92.47;99072.15;105705;1259;74447;-21
2023/06/21 03:50:08;;;;;;;11.90;10.60;;;;;;;17.18;91.39;99070.33;105641;1267;72576;-21
2023/06/21 03:52:37;;;;;;;21.90;13.50;;;;;;;17.20;89.53;99070.60;105571;1262;61231;-21
2023/06/21 03:55:05;;;;;;;14.80;11.70;;;;;;;17.31;88.83;99074.02;105643;1259;61256;-21
2023/06/21 03:57:33;;;;;;;15.00;12.90;;;;;;;16.94;89.75;99073.61;105438;1260;72556;-21
2023/06/21 04:00:12;;;;;;;9.90;8.90;;;;;;;16.79;90.87;99079.00;105637;1253;74091;-22
2023/06/21 04:02:43;;;;;;;16.10;11.90;;;;;;;16.92;89.97;99084.00;105579;1260;72398;-21
2023/06/21 04:05:11;;;;;;;18.90;15.10;;;;;;;16.64;90.11;99085.00;105720;1259;61152;-22
2023/06/21 04:07:38;;;;;;;20.70;14.20;;;;;;;16.62;91.23;99091.84;105783;1266;61079;-21
2023/06/21 04:10:06;;;;;;;17.50;13.70;;;;;;;16.62;91.15;99091.87;105682;1255;73782;-22
2023/06/21 04:12:33;;;;;;;11.00;8.80;;;;;;;16.87;91.57;99094.89;105716;1259;74356;-22
2023/06/21 04:15:00;;;;;;;14.20;9.20;;;;;;;17.32;90.68;99096.80;105713;1256;72642;-21
2023/06/21 04:17:28;;;;;;;15.00;11.30;;;;;;;17.85;86.54;99091.91;105749;1259;61107;-22
2023/06/21 04:19:55;;;;;;;25.10;17.60;;;;;;;17.49;85.61;99091.33;105538;1254;61210;-22
2023/06/21 04:22:24;;;;;;;19.70;15.10;;;;;;;17.01;88.74;99094.98;105394;1262;74371;-22
2023/06/21 04:24:51;;;;;;;48.20;32.00;;;;;;;16.69;90.59;99104.23;105618;1254;74256;-22
2023/06/21 04:27:22;;;;;;;28.10;21.70;;;;;;;17.12;91.55;99111.80;105594;1254;72445;-22
2023/06/21 04:29:49;;;;;;;21.40;16.60;;;;;;;17.41;87.33;99107.29;105612;1258;61103;-22
2023/06/21 04:32:17;;;;;;;21.50;16.60;;;;;;;17.71;86.59;99114.29;105593;1259;61147;-22
2023/06/21 04:34:47;;;;;;;20.20;15.10;;;;;;;17.59;84.67;99112.55;105763;1257;73586;-22
2023/06/21 04:37:14;;;;;;;16.90;13.50;;;;;;;17.55;86.02;99115.98;105713;1262;74540;-22
2023/06/21 04:39:41;;;;;;;12.20;10.00;;;;;;;17.39;86.73;99121.25;105687;1259;72664;-22
2023/06/21 04:42:08;;;;;;;12.80;9.70;;;;;;;17.79;86.21;99125.29;105612;1259;61055;-23
2023/06/21 04:44:35;;;;;;;15.70;11.80;;;;;;;18.18;83.44;99122.05;105410;1254;61118;-22
2023/06/21 04:47:02;;;;;;;23.10;16.30;;;;;;;18.03;82.61;99124.75;105579;1257;74687;-22
2023/06/21 04:49:30;;;;;;;69.90;39.10;;;;;;;17.31;85.38;99128.76;105647;1255;74185;-22
2023/06/21 04:51:58;;;;;;;37.80;25.00;;;;;;;17.24;86.56;99133.84;105683;1259;72921;-22
2023/06/21 04:54:25;;;;;;;27.10;17.40;;;;;;;17.28;87.19;99138.73;105657;1259;61931;-23
2023/06/21 04:56:52;;;;;;;19.70;13.80;;;;;;;17.86;86.45;99138.52;105545;1260;61137;-22
2023/06/21 04:59:19;;;;;;;30.70;20.30;;;;;;;18.47;83.87;99137.15;105699;1257;74094;-22
2023/06/21 05:01:46;;;;;;;17.40;12.50;;;;;;;18.49;81.78;99143.96;105659;1259;74327;-22
2023/06/21 05:04:13;;;;;;;17.90;12.50;;;;;;;18.28;81.70;99141.33;105629;1254;72675;-22
2023/06/21 05:06:42;;;;;;;22.20;14.30;;;;;;;17.77;82.96;99147.77;105587;1254;61060;-24
2023/06/21 05:09:09;;;;;;;16.70;12.20;;;;;;;17.24;86.74;99147.22;105591;1257;61148;-23
2023/06/21 05:11:40;;;;;;;11.90;8.80;;;;;;;17.31;87.80;99152.73;105673;1258;73759;-23
2023/06/21 05:14:06;;;;;;;18.50;13.50;;;;;;;17.56;85.81;99154.14;105693;1265;74295;-23
2023/06/21 05:16:34;;;;;;;17.30;12.60;;;;;;;17.68;84.15;99156.46;105677;1259;72464;-23
2023/06/21 05:19:01;;;;;;;16.40;12.80;;;;;;;17.66;84.82;99158.46;105379;1260;61183;-23
2023/06/21 05:21:28;;;;;;;14.80;12.50;;;;;;;17.82;84.72;99164.29;105615;1259;61103;-23
2023/06/21 05:23:55;;;;;;;16.00;13.00;;;;;;;17.32;85.77;99161.78;105659;1255;73864;-23
2023/06/21 05:26:22;;;;;;;10.90;8.90;;;;;;;17.03;87.30;99160.81;105560;1263;74211;-23
2023/06/21 05:28:49;;;;;;;14.60;9.80;;;;;;;17.56;86.40;99164.08;105549;1257;72618;-23
2023/06/21 05:31:16;;;;;;;17.60;13.30;;;;;;;18.04;84.37;99164.48;105554;1259;61195;-22
2023/06/21 05:33:43;;;;;;;18.00;14.60;;;;;;;17.28;85.74;99162.52;105496;1258;61087;-22
2023/06/21 05:36:10;;;;;;;15.70;12.60;;;;;;;17.29;87.48;99165.77;105486;1257;73654;-22
2023/06/21 05:38:37;;;;;;;20.90;11.70;;;;;;;17.77;86.73;99167.33;105633;1266;74193;-22
2023/06/21 05:41:04;;;;;;;12.80;9.50;;;;;;;17.92;85.09;99160.73;105660;1258;72655;-22
2023/06/21 05:43:31;;;;;;;13.90;10.90;;;;;;;18.37;83.26;99154.35;105721;1254;61160;-22
2023/06/21 05:45:58;;;;;;;12.90;10.50;;;;;;;18.53;80.41;99151.21;105680;1260;61169;-22
2023/06/21 05:48:25;;;;;;;12.60;10.30;;;;;;;18.80;80.70;99152.88;105714;1259;74813;-23
2023/06/21 05:50:52;;;;;;;14.20;11.60;;;;;;;18.81;80.30;99153.16;105585;1264;74461;-23
2023/06/21 05:53:19;;;;;;;13.90;11.00;;;;;;;18.62;80.33;99159.48;105521;1259;72685;-22
2023/06/21 05:55:46;;;;;;;15.00;12.30;;;;;;;18.41;80.94;99159.42;105540;1257;61106;-23
2023/06/21 05:58:13;;;;;;;9.10;7.50;;;;;;;18.26;81.53;99156.06;105608;1266;61171;-23
2023/06/21 06:00:40;;;;;;;11.50;8.50;;;;;;;18.68;80.97;99154.96;105716;1254;73884;-24
2023/06/21 06:03:08;;;;;;;11.80;10.00;;;;;;;19.43;79.22;99153.95;105678;1266;74432;-22
2023/06/21 06:05:35;;;;;;;13.50;10.60;;;;;;;19.79;78.57;99153.77;105683;1258;72628;-23
2023/06/21 06:08:03;;;;;;;16.10;12.40;;;;;;;19.78;77.97;99153.10;105685;1254;61221;-22
2023/06/21 06:10:30;;;;;;;18.10;13.00;;;;;;;19.59;77.45;99150.21;105736;1257;61241;-22
2023/06/21 06:12:58;;;;;;;17.90;11.90;;;;;;;19.46;78.85;99148.92;105734;1254;72712;-23
2023/06/21 06:15:25;;;;;;;15.40;12.10;;;;;;;19.38;79.66;99154.20;105705;1257;74366;-23
2023/06/21 06:17:52;;;;;;;10.70;8.60;;;;;;;19.37;80.31;99153.13;105699;1254;72457;-22
2023/06/21 06:20:19;;;;;;;12.60;9.80;;;;;;;19.16;77.67;99153.94;105680;1258;61045;-22
2023/06/21 06:22:46;;;;;;;10.20;9.10;;;;;;;19.92;76.73;99153.34;105533;1257;61177;-23
2023/06/21 06:25:13;;;;;;;10.90;9.30;;;;;;;20.44;74.82;99157.88;105459;1259;73836;-22
2023/06/21 06:27:40;;;;;;;13.10;11.80;;;;;;;20.66;74.22;99161.08;105635;1254;74161;-22
2023/06/21 06:30:08;;;;;;;15.90;13.20;;;;;;;20.42;73.59;99163.63;105752;1259;71452;-22
2023/06/21 06:32:36;;;;;;;12.10;10.80;;;;;;;20.20;73.30;99159.39;105691;1260;61200;-22
2023/06/21 06:35:04;;;;;;;27.00;17.40;;;;;;;20.62;73.81;99156.56;105631;1255;61790;-22
2023/06/21 06:37:31;;;;;;;26.40;16.40;;;;;;;19.40;75.04;99158.86;105419;1260;73852;-22
2023/06/21 06:39:59;;;;;;;50.30;29.10;;;;;;;19.68;76.64;99160.56;105672;1257;73361;-22
2023/06/21 06:42:26;;;;;;;20.60;15.10;;;;;;;19.34;76.98;99161.27;105663;1253;73083;-22
2023/06/21 06:44:53;;;;;;;16.10;11.20;;;;;;;19.65;76.30;99165.64;105653;1258;62153;-22
2023/06/21 06:47:19;;;;;;;19.00;13.10;;;;;;;20.08;73.17;99163.83;105654;1259;61161;-22
2023/06/21 06:49:47;;;;;;;14.10;10.60;;;;;;;20.84;74.05;99168.23;105573;1254;73751;-22
2023/06/21 06:52:13;;;;;;;13.90;10.80;;;;;;;21.12;70.30;99171.85;105532;1257;74394;-22
2023/06/21 06:54:41;;;;;;;44.30;26.60;;;;;;;21.40;69.38;99173.58;105577;1254;72537;-22
2023/06/21 06:57:09;;;;;;;25.50;17.10;;;;;;;21.57;68.26;99176.59;105476;1258;61179;-23
2023/06/21 06:59:56;;;;;;;16.30;14.40;;;;;;;21.88;69.70;99178.40;105424;1254;61202;-23
2023/06/21 07:02:23;;;;;;;16.90;11.80;;;;;;;21.66;68.88;99181.60;105595;1254;73698;-23
2023/06/21 07:04:50;;;;;;;13.70;10.90;;;;;;;21.71;69.86;99181.88;105701;1257;74313;-23
2023/06/21 07:07:18;;;;;;;12.00;10.80;;;;;;;21.75;69.76;99181.88;105672;1255;72607;-23
2023/06/21 07:09:45;;;;;;;14.00;11.00;;;;;;;21.71;68.78;99184.34;105407;1259;61244;-22
2023/06/21 07:12:12;;;;;;;12.30;11.00;;;;;;;21.37;68.12;99183.62;105724;1254;61124;-22
2023/06/21 07:14:39;;;;;;;11.90;10.60;;;;;;;21.08;69.43;99188.44;105710;1254;73765;-23
2023/06/21 07:17:06;;;;;;;13.30;10.20;;;;;;;21.01;70.15;99189.35;105731;1255;74322;-23
2023/06/21 07:19:33;;;;;;;11.10;9.60;;;;;;;20.93;70.69;99190.10;105662;1257;72691;-23
2023/06/21 07:22:00;;;;;;;8.40;7.60;;;;;;;20.98;71.54;99185.75;105650;1258;61858;-22
2023/06/21 07:24:27;;;;;;;9.60;8.00;;;;;;;21.51;70.28;99185.39;105611;1258;61169;-23
2023/06/21 07:26:54;;;;;;;9.80;8.80;;;;;;;22.15;67.87;99190.10;105458;1254;73780;-23
2023/06/21 07:29:21;;;;;;;10.20;9.00;;;;;;;22.50;66.32;99191.48;105553;1257;74315;-23
2023/06/21 07:31:48;;;;;;;11.10;8.70;;;;;;;22.70;65.42;99194.55;105561;1255;72544;-23
2023/06/21 07:34:15;;;;;;;11.90;9.30;;;;;;;22.98;64.62;99194.19;105658;1255;61173;-23
2023/06/21 07:36:43;;;;;;;9.60;8.70;;;;;;;23.08;64.46;99193.54;105594;1266;61250;-22
2023/06/21 07:39:10;;;;;;;11.60;10.10;;;;;;;23.05;62.90;99192.67;105692;1257;73709;-23
2023/06/21 07:41:37;;;;;;;10.70;9.30;;;;;;;22.94;63.47;99193.91;105651;1257;74317;-23
2023/06/21 07:44:04;;;;;;;10.20;9.10;;;;;;;22.79;65.12;99192.36;105488;1254;72522;-23
2023/06/21 07:46:31;;;;;;;10.00;9.00;;;;;;;22.65;64.54;99195.27;105619;1257;61095;-22
2023/06/21 07:49:00;;;;;;;9.70;8.70;;;;;;;22.71;64.68;99193.02;105682;1257;61128;-23
2023/06/21 07:51:27;;;;;;;12.60;9.50;;;;;;;22.41;62.76;99188.98;105692;1257;73852;-23
2023/06/21 07:53:54;;;;;;;11.30;8.60;;;;;;;22.67;64.87;99187.53;105707;1255;74162;-22
2023/06/21 07:56:21;;;;;;;11.30;8.80;;;;;;;22.97;62.93;99187.33;105667;1255;72675;-22
2023/06/21 07:58:48;;;;;;;9.10;8.20;;;;;;;23.23;63.04;99182.55;105751;1254;61151;-22
2023/06/21 08:01:15;;;;;;;9.70;8.20;;;;;;;23.21;61.66;99179.29;105690;1257;61091;-23
2023/06/21 08:03:42;;;;;;;7.60;6.80;;;;;;;23.31;61.97;99179.36;105548;1254;74059;-22
2023/06/21 08:06:09;;;;;;;10.00;8.60;;;;;;;22.87;60.17;99178.89;105625;1254;74157;-23
2023/06/21 08:08:37;;;;;;;8.60;7.60;;;;;;;23.00;61.74;99179.20;105614;1254;72526;-23
2023/06/21 08:11:04;;;;;;;9.40;8.40;;;;;;;23.29;62.41;99175.46;105634;1254;62644;-22
2023/06/21 08:13:32;;;;;;;9.00;8.10;;;;;;;23.38;62.30;99171.70;105610;1254;61177;-23
2023/06/21 08:15:59;;;;;;;8.90;7.90;;;;;;;23.61;63.61;99169.91;105666;1253;73889;-23
2023/06/21 08:18:26;;;;;;;10.70;8.10;;;;;;;23.76;61.00;99167.96;105615;1257;74965;-23
2023/06/21 08:20:53;;;;;;;9.10;8.20;;;;;;;23.79;60.05;99164.45;105593;1253;72784;-23
2023/06/21 08:23:23;;;;;;;11.70;8.20;;;;;;;23.85;60.40;99167.56;105572;1255;61052;-23
2023/06/21 08:25:50;;;;;;;8.90;8.00;;;;;;;24.07;60.67;99172.59;105505;1257;61243;-23
2023/06/21 08:28:17;;;;;;;8.90;7.40;;;;;;;24.11;60.18;99170.80;105470;1254;72580;-23
2023/06/21 08:30:45;;;;;;;10.50;7.00;;;;;;;24.06;59.62;99172.42;105700;1257;74843;-23
2023/06/21 08:33:12;;;;;;;8.80;7.20;;;;;;;24.12;58.35;99172.45;105665;1254;72341;-23
2023/06/21 08:35:40;;;;;;;34.30;27.90;;;;;;;24.26;57.80;99169.37;105659;1256;61175;-23
2023/06/21 08:38:11;;;;;;;8.80;7.90;;;;;;;24.31;57.11;99170.02;105624;1257;61145;-23
2023/06/21 08:40:57;;;;;;;11.90;9.10;;;;;;;24.48;55.67;99165.70;105572;1255;73876;-23
2023/06/21 08:43:24;;;;;;;10.70;8.40;;;;;;;24.42;55.82;99165.52;105571;1260;74507;-23
2023/06/21 08:45:51;;;;;;;18.10;13.40;;;;;;;24.92;56.03;99165.10;105549;1253;73567;-24
2023/06/21 08:48:18;;;;;;;17.60;11.90;;;;;;;25.00;53.72;99162.33;105541;1254;61077;-23
2023/06/21 08:50:45;;;;;;;15.40;10.50;;;;;;;25.40;54.74;99162.52;105519;1258;61097;-23
2023/06/21 08:53:13;;;;;;;10.00;9.00;;;;;;;25.53;52.51;99164.14;105615;1254;73858;-23
2023/06/21 08:55:40;;;;;;;9.80;6.50;;;;;;;25.80;53.64;99166.06;105698;1259;74289;-23
2023/06/21 08:58:12;;;;;;;7.70;6.40;;;;;;;26.07;52.44;99160.17;105592;1255;73124;-23
2023/06/21 09:00:46;;;;;;;8.00;6.40;;;;;;;26.03;53.24;99159.61;105644;1255;61820;-23
2023/06/21 09:03:36;;;;;;;6.80;6.10;;;;;;;25.99;53.74;99159.87;105505;1254;61175;-23
2023/06/21 09:06:11;;;;;;;8.30;6.50;;;;;;;26.10;52.38;99158.27;105679;1259;73690;-23
2023/06/21 09:08:39;;;;;;;7.10;6.40;;;;;;;26.19;51.78;99158.90;105692;1259;72494;-23
2023/06/21 09:11:07;;;;;;;7.20;6.60;;;;;;;26.32;51.87;99159.23;105836;1254;72637;-23
2023/06/21 09:13:34;;;;;;;6.90;6.20;;;;;;;26.42;50.86;99155.30;105528;1259;61121;-23
2023/06/21 09:16:02;;;;;;;7.50;6.80;;;;;;;26.46;50.50;99153.64;105718;1253;61189;-23
2023/06/21 09:18:35;;;;;;;9.00;7.00;;;;;;;26.37;49.88;99157.04;105768;1254;73755;-23
2023/06/21 09:21:02;;;;;;;9.10;7.30;;;;;;;26.43;51.33;99156.92;105593;1259;74332;-24
2023/06/21 09:23:29;;;;;;;10.00;8.10;;;;;;;26.62;51.40;99157.09;105764;1256;73069;-24
2023/06/21 09:25:56;;;;;;;8.00;7.20;;;;;;;26.67;50.30;99156.69;105682;1254;61129;-23
2023/06/21 09:28:23;;;;;;;7.30;6.50;;;;;;;26.70;49.77;99158.95;105569;1260;61062;-23
2023/06/21 09:30:50;;;;;;;7.70;6.40;;;;;;;26.67;49.66;99157.80;105640;1254;73686;-23
2023/06/21 09:33:17;;;;;;;8.60;6.20;;;;;;;26.87;49.64;99159.38;105865;1256;74319;-23
2023/06/21 09:35:45;;;;;;;8.10;6.20;;;;;;;26.59;48.18;99159.45;105657;1254;72609;-24
2023/06/21 09:38:19;;;;;;;6.80;6.10;;;;;;;26.53;49.20;99157.39;105580;1252;61144;-23
2023/06/21 09:40:46;;;;;;;7.40;6.00;;;;;;;26.98;48.36;99156.60;105602;1259;61602;-23
2023/06/21 09:43:13;;;;;;;6.50;5.80;;;;;;;27.33;49.37;99154.88;105837;1254;74253;-23
2023/06/21 09:45:40;;;;;;;6.40;5.80;;;;;;;27.55;49.11;99147.42;105844;1257;74386;-23
2023/06/21 09:48:07;;;;;;;6.00;5.40;;;;;;;27.54;47.95;99149.91;105805;1253;72509;-24
2023/06/21 09:50:44;;;;;;;6.90;6.20;;;;;;;27.68;46.57;99152.14;105934;1254;61049;-24
2023/06/21 09:53:11;;;;;;;7.70;5.10;;;;;;;27.90;45.92;99147.81;105653;1260;61143;-23
2023/06/21 09:55:43;;;;;;;20.90;14.30;;;;;;;27.13;46.48;99149.84;105886;1254;73844;-24
2023/06/21 09:58:10;;;;;;;10.80;6.30;;;;;;;27.30;48.49;99154.14;105620;1254;74310;-23
2023/06/21 10:00:37;;;;;;;8.80;6.40;;;;;;;27.25;44.81;99150.78;105948;1254;72514;-23
2023/06/21 10:03:04;;;;;;;6.70;5.40;;;;;;;27.34;47.57;99151.58;105506;1254;61183;-23
2023/06/21 10:05:31;;;;;;;6.30;5.70;;;;;;;28.24;45.19;99148.11;105658;1253;61193;-23
2023/06/21 10:07:58;;;;;;;6.50;5.70;;;;;;;28.57;45.10;99144.20;105736;1254;73828;-23
2023/06/21 10:10:54;;;;;;;6.20;5.60;;;;;;;27.34;44.95;99150.36;102629;1293;600289;-23
2023/06/21 10:21:04;;;;;;;5.40;4.90;;;;;;;28.03;44.18;99147.98;102634;1289;600164;-22
2023/06/21 10:23:34;;;;;;;5.90;5.30;;;;;;;28.24;42.83;99148.60;104721;1270;61142;-22
2023/06/21 10:26:06;;;;;;;8.50;6.00;;;;;;;28.84;44.69;99150.23;104802;1267;61154;-22
2023/06/21 10:28:38;;;;;;;11.40;7.40;;;;;;;29.45;42.71;99147.16;104711;1272;72731;-22
2023/06/21 10:31:08;;;;;;;5.70;5.10;;;;;;;29.66;41.91;99146.98;104740;1267;74052;-22
2023/06/21 10:33:36;;;;;;;9.60;5.80;;;;;;;29.92;41.61;99149.15;102815;1273;2644174;-22
2023/06/21 10:36:05;;;;;;;6.70;5.70;;;;;;;29.68;42.09;99151.73;104782;1273;61197;-22
2023/06/21 10:38:41;;;;;;;5.90;5.30;;;;;;;28.61;43.25;99152.69;104881;1264;61147;-22
2023/06/21 10:41:09;;;;;;;5.20;4.70;;;;;;;27.90;43.84;99147.86;105092;1269;72146;-22
2023/06/21 10:43:37;;;;;;;5.80;5.10;;;;;;;27.91;44.38;99149.11;104830;1268;73106;-22
2023/06/21 10:46:05;;;;;;;5.70;5.20;;;;;;;28.27;43.47;99149.24;104807;1270;71445;-22
2023/06/21 10:48:33;;;;;;;5.80;5.30;;;;;;;28.60;43.00;99149.63;105086;1264;61161;-22
2023/06/21 10:58:39;;;;;;;5.00;4.50;;;;;;;29.01;40.30;99149.39;102606;1293;600321;-22
2023/06/21 11:01:09;;;;;;;7.70;5.00;;;;;;;28.91;41.12;99146.02;104870;1269;61772;-22
2023/06/21 11:03:37;;;;;;;7.20;5.10;;;;;;;28.76;44.51;99149.58;104835;1271;61182;-23
2023/06/21 11:06:28;;;;;;;5.00;4.50;;;;;;;28.94;43.53;99149.94;104784;1267;71665;-23
2023/06/21 11:16:42;;;;;;;16.60;5.70;;;;;;;28.81;42.85;99140.72;102677;1294;600054;-23
2023/06/21 11:19:13;;;;;;;6.80;5.10;;;;;;;28.86;42.55;99141.28;105053;1269;61193;-23
2023/06/21 11:21:49;;;;;;;7.00;5.80;;;;;;;28.66;41.14;99145.11;104777;1273;61925;-24
2023/06/21 11:24:18;;;;;;;5.90;5.30;;;;;;;28.59;42.20;99146.86;105166;1262;72584;-23
2023/06/21 11:27:02;;;;;;;5.10;4.60;;;;;;;28.76;42.21;99139.39;104896;1263;76699;-23
2023/06/21 11:29:36;;;;;;;10.30;4.70;;;;;;;28.80;42.73;99140.16;103064;1261;2596865;-23
2023/06/21 11:32:14;;;;;;;5.10;4.60;;;;;;;28.69;42.16;99140.17;105284;1260;61176;-24
2023/06/21 11:34:58;;;;;;;5.20;4.70;;;;;;;28.97;41.14;99140.97;105162;1260;61067;-23
2023/06/21 11:37:40;;;;;;;7.40;4.80;;;;;;;29.19;41.02;99140.01;105058;1261;72228;-23
2023/06/21 11:40:09;;;;;;;6.30;5.00;;;;;;;29.16;41.88;99135.41;105317;1257;74274;-23
2023/06/21 11:42:42;;;;;;;5.50;5.00;;;;;;;28.77;42.11;99135.07;105543;1261;72693;-23
2023/06/21 11:45:32;;;;;;;5.80;5.30;;;;;;;28.56;42.41;99131.03;105599;1256;61557;-23
2023/06/21 11:55:39;;;;;;;6.20;5.60;;;;;;;27.61;41.89;99138.02;102612;1292;600217;-22